Mammoth Cave National Park, KY

6:42 AM CDT op 23 oktober 2014 (GMT -0500)
Ridgeview Drive | Change Station
CLOSE
Current Station
Persoonlijk weerstation
Location: Bowling Green, KY
Geometrische hoogte: 650 ft
Nabije weerstations
Actief advies: Frost Advisory

Hoogte 650 ft 36.99 °N, 86.52 °W | Updated 2 seconds ago

Mist
Mist
39.3 °F
Voelt als 39 °F
N
0.0
Wind Variabel Wind van noord
Gusts 0.0 mijl/u

Vandaag
Hoog -- | Laag -- °F
--% Kans op neerslag
Gisteren
Hoog -- | Laag -- °F
Precip. -- inches
7:01 AM 5:58 PM
Afnemende halvemaan, 0% visible
Druk 30.25 inches
Zicht 1.0 mijlen
Wolken Helder
Gevoelstemperatuur 39 °F
Dauwpunt 38 °F
Vochtigheid 96%
Neerslag 0.00 inches
Dikte sneeuw Niet beschikbaar.
UV 0 van de 12
Pollen 1.10 van de 12
Luchtkwaliteit Niet beschikbaar.
Flu Activity Niet beschikbaar.
SPECI KBWG 231127Z AUTO 00000KT 1SM BR CLR 02/01 A3025 RMK AO2 VIS 1/2V2 1/2 T00220011

More Conditions Fewer Conditions

Druk 30.25 inches
Zicht 1.0 mijlen
Wolken Helder
Gevoelstemperatuur 39 °F
Dauwpunt 38 °F
Vochtigheid 96%
Neerslag 0.00 inches
Dikte sneeuw Niet beschikbaar.
UV 0 van de 12
Pollen 1.10 van de 12
Luchtkwaliteit Niet beschikbaar.
Flu Activity Niet beschikbaar.
SPECI KBWG 231127Z AUTO 00000KT 1SM BR CLR 02/01 A3025 RMK AO2 VIS 1/2V2 1/2 T00220011

More Conditions Fewer Conditions

10-Day Weather Forecast

Almanac

Astronomie

Oct. 23, 2014 Opkomst Ondergang
Werkelijke tijd 7:01 AM CDT 5:58 PM CDT
Burgerlijke schemering 6:34 AM CDT 6:25 PM CDT
Nautische schemering 6:04 AM CDT 6:55 PM CDT
Astronomische schemering 5:34 AM CDT 7:25 PM CDT
Maan 6:40 AM CDT 6:00 PM CDT
Golflengte van het zichtbare licht 11h 50m
Daglengte
10h 57m
Tomorrow will be 2m 11s shorter.
Afnemende halvemaan, 0% of the Moon is Illuminated
Vandaag
Afnemende halvemaan
oktober 23
Nieuw
oktober 30
Eerste kwartier
nov 6
Volle maan
nov 14
Laatste kwartier

Extremen vandaag

State Highs State Lows

Community

WunderPhotos

Upload Photos

1,764,209 foto’s ge-upload!

Nearby

Dikte sneeuw

Station Depth Geometrische hoogte
Er is geen verse sneeuw gerapporteerd.

Aardbevingen

Stad Distance Mag. Time & Date
No recent earthquake activity has been reported nearby.
Minimum magnitude displayed is 2.5.

Watertemperatuur langs de kust

Plaats Temperatuur
Geen meldingen van stations

Nabije weerstations